Time;durP1;ratioP1;P1;durP2;ratioP2;P2;SDS_P1;SDS_P2;PMS_P1;PMS_P2;Temp;Humidity;BMP_temperature;BMP_pressure;BME280_temperature;BME280_humidity;BME280_pressure;Samples;Min_cycle;Max_cycle;Signal;HPM_P1;HPM_P2
2021/06/04 00:01:07;;;;;;;6.77;5.43;;;18.40;99.90;;;;;;5113642;28;20196;-77
2021/06/04 00:03:33;;;;;;;7.03;4.97;;;18.40;99.90;;;;;;5095679;28;20176;-78
2021/06/04 00:05:59;;;;;;;6.93;5.17;;;18.30;99.90;;;;;;5095647;28;20212;-78
2021/06/04 00:08:24;;;;;;;6.87;5.30;;;18.30;99.90;;;;;;5112585;28;20175;-77
2021/06/04 00:10:55;;;;;;;5.53;4.80;;;18.30;99.90;;;;;;5112056;28;20191;-78
2021/06/04 00:13:28;;;;;;;6.77;4.83;;;18.40;99.90;;;;;;5112682;28;20374;-78
2021/06/04 00:16:00;;;;;;;6.37;5.00;;;18.40;99.90;;;;;;5095159;28;20180;-77
2021/06/04 00:18:26;;;;;;;6.23;5.00;;;18.30;99.90;;;;;;5112520;28;20176;-77
2021/06/04 00:20:52;;;;;;;8.20;5.37;;;18.30;99.90;;;;;;5094719;28;20210;-78
2021/06/04 00:23:18;;;;;;;5.90;5.17;;;18.20;99.90;;;;;;5112744;28;20172;-77
2021/06/04 00:25:43;;;;;;;7.13;4.67;;;18.10;99.90;;;;;;5095624;28;20637;-77
2021/06/04 00:28:09;;;;;;;6.13;4.90;;;18.00;99.90;;;;;;5078928;28;20432;-77
2021/06/04 00:30:35;;;;;;;6.93;5.23;;;18.00;99.90;;;;;;5095103;28;20730;-78
2021/06/04 00:33:00;;;;;;;6.23;4.93;;;18.00;99.90;;;;;;5097394;28;20548;-78
2021/06/04 00:35:27;;;;;;;7.40;5.17;;;18.00;99.90;;;;;;5097438;28;20208;-79
2021/06/04 00:37:53;;;;;;;7.43;5.67;;;18.00;99.90;;;;;;5098200;28;20180;-79
2021/06/04 00:40:22;;;;;;;6.77;5.13;;;17.90;99.90;;;;;;5098421;28;20186;-79
2021/06/04 00:42:47;;;;;;;7.10;5.10;;;18.00;99.90;;;;;;5115453;28;20598;-78
2021/06/04 00:45:16;;;;;;;7.70;5.47;;;18.00;99.90;;;;;;5098013;28;20247;-79
2021/06/04 00:47:42;;;;;;;6.53;5.10;;;18.00;99.90;;;;;;5099392;28;20180;-79
2021/06/04 00:50:10;;;;;;;6.70;5.43;;;18.00;99.90;;;;;;5114894;28;20578;-78
2021/06/04 00:52:35;;;;;;;6.43;5.10;;;17.90;99.90;;;;;;5116107;28;20183;-79
2021/06/04 00:55:01;;;;;;;7.23;5.37;;;17.90;99.90;;;;;;5115249;28;20176;-79
2021/06/04 00:57:27;;;;;;;6.53;5.27;;;17.90;99.90;;;;;;5115457;28;20635;-79
2021/06/04 01:00:02;;;;;;;8.17;5.30;;;17.90;99.90;;;;;;5115514;28;20211;-79
2021/06/04 01:02:28;;;;;;;9.10;5.93;;;17.90;99.90;;;;;;5115183;28;20214;-78
2021/06/04 01:04:53;;;;;;;5.83;4.77;;;17.90;99.90;;;;;;5098364;28;20207;-78
2021/06/04 01:07:35;;;;;;;7.83;5.03;;;17.90;99.90;;;;;;5098018;28;20184;-79
2021/06/04 01:10:08;;;;;;;6.97;5.17;;;17.90;99.90;;;;;;5097637;28;20197;-79
2021/06/04 01:12:37;;;;;;;8.40;5.83;;;17.90;99.90;;;;;;5097718;28;20215;-78
2021/06/04 01:15:23;;;;;;;7.27;5.27;;;17.80;99.90;;;;;;5116465;28;20180;-79
2021/06/04 01:17:52;;;;;;;7.83;5.50;;;17.80;99.90;;;;;;5098575;28;20673;-78
2021/06/04 01:20:24;;;;;;;11.60;5.70;;;17.80;99.90;;;;;;5115857;28;20643;-79
2021/06/04 01:23:44;;;;;;;7.43;5.40;;;17.80;99.90;;;;;;5115220;28;20172;-79
2021/06/04 01:26:24;;;;;;;7.00;4.80;;;17.80;99.90;;;;;;5033657;28;20206;-78
2021/06/04 01:28:51;;;;;;;6.70;4.93;;;17.80;99.90;;;;;;5101993;28;20514;-78
2021/06/04 01:31:29;;;;;;;7.23;5.50;;;17.80;99.90;;;;;;5118636;28;20199;-79
2021/06/04 01:34:01;;;;;;;5.97;4.87;;;17.70;99.90;;;;;;5102079;28;20200;-78
2021/06/04 01:36:29;;;;;;;6.90;5.10;;;17.70;99.90;;;;;;5117851;28;20799;-79
2021/06/04 01:38:56;;;;;;;7.20;5.60;;;17.60;99.90;;;;;;5102052;28;20180;-79
2021/06/04 01:41:23;;;;;;;7.40;5.40;;;17.60;99.90;;;;;;5118168;28;20248;-78
2021/06/04 01:44:04;;;;;;;7.20;5.77;;;17.60;99.90;;;;;;5101455;28;20731;-79
2021/06/04 01:46:42;;;;;;;5.57;4.67;;;17.60;99.90;;;;;;5101945;28;20697;-79
2021/06/04 01:49:17;;;;;;;7.20;5.30;;;17.60;99.90;;;;;;5101047;28;20204;-79
2021/06/04 01:51:45;;;;;;;6.83;5.50;;;17.60;99.90;;;;;;5101170;28;20195;-78
2021/06/04 01:54:21;;;;;;;7.60;5.63;;;17.60;99.90;;;;;;5118711;28;20219;-79
2021/06/04 01:56:48;;;;;;;6.60;5.20;;;17.60;99.90;;;;;;5101110;28;20199;-79
2021/06/04 01:59:20;;;;;;;7.23;4.97;;;17.60;99.90;;;;;;5117303;28;20172;-79
2021/06/04 02:01:48;;;;;;;7.03;5.73;;;17.60;99.90;;;;;;5118341;28;20275;-79
2021/06/04 02:04:35;;;;;;;8.30;6.00;;;17.60;99.90;;;;;;5101768;28;20278;-79
2021/06/04 02:07:00;;;;;;;6.77;5.20;;;17.60;99.90;;;;;;5118509;28;20228;-78
2021/06/04 02:09:27;;;;;;;7.07;5.10;;;17.60;99.90;;;;;;5101194;28;20266;-79
2021/06/04 02:11:53;;;;;;;7.03;5.00;;;17.60;99.90;;;;;;5118411;28;20543;-79
2021/06/04 02:14:31;;;;;;;7.10;5.63;;;17.60;99.90;;;;;;5101398;28;20662;-79
2021/06/04 02:17:23;;;;;;;8.57;4.87;;;17.60;99.90;;;;;;5118422;28;20213;-79
2021/06/04 02:19:56;;;;;;;8.43;6.10;;;17.60;99.90;;;;;;5120390;28;20229;-79
2021/06/04 02:22:25;;;;;;;7.63;5.97;;;17.70;99.90;;;;;;5118397;28;20272;-79
2021/06/04 02:25:10;;;;;;;8.90;7.13;;;17.70;99.90;;;;;;5118126;28;20299;-79
2021/06/04 02:27:43;;;;;;;9.17;6.87;;;17.90;99.90;;;;;;5117571;28;20168;-79
2021/06/04 02:30:08;;;;;;;8.97;6.47;;;17.90;99.90;;;;;;5118096;28;20230;-79
2021/06/04 02:32:56;;;;;;;9.47;7.00;;;17.90;99.90;;;;;;5118383;28;20652;-79
2021/06/04 02:35:37;;;;;;;8.30;6.57;;;17.90;99.90;;;;;;5101364;28;20190;-78
2021/06/04 02:38:18;;;;;;;7.60;5.90;;;17.80;99.90;;;;;;5100624;28;20651;-78
2021/06/04 02:41:06;;;;;;;8.40;6.53;;;17.80;99.90;;;;;;5116907;28;20356;-78
2021/06/04 02:43:57;;;;;;;6.70;5.67;;;17.80;99.90;;;;;;5117841;28;20182;-79
2021/06/04 02:46:28;;;;;;;7.00;5.73;;;17.80;99.90;;;;;;5117317;28;20220;-79
2021/06/04 02:48:54;;;;;;;9.37;6.77;;;17.70;99.90;;;;;;5117437;28;20185;-79
2021/06/04 02:51:32;;;;;;;8.97;6.17;;;17.80;99.90;;;;;;5116803;28;20215;-78
2021/06/04 02:54:00;;;;;;;8.20;6.40;;;18.00;99.90;;;;;;5117176;28;20644;-79
2021/06/04 02:56:30;;;;;;;8.77;6.53;;;18.00;99.90;;;;;;5099992;28;20229;-79
2021/06/04 02:59:00;;;;;;;8.90;6.30;;;18.10;99.90;;;;;;5099877;28;20225;-79
2021/06/04 03:01:27;;;;;;;9.00;6.37;;;18.00;99.90;;;;;;5117154;28;20231;-78
2021/06/04 03:03:58;;;;;;;9.53;6.33;;;17.90;99.90;;;;;;5099817;28;20175;-78
2021/06/04 03:06:26;;;;;;;8.97;6.37;;;17.90;99.90;;;;;;5117414;28;20192;-79
2021/06/04 03:08:51;;;;;;;7.50;5.43;;;17.80;99.90;;;;;;5099734;28;20179;-79
2021/06/04 03:11:19;;;;;;;8.07;6.20;;;17.80;99.90;;;;;;5098909;28;20196;-79
2021/06/04 03:13:44;;;;;;;8.60;5.90;;;17.80;99.90;;;;;;5099519;28;20176;-78
2021/06/04 03:16:14;;;;;;;9.90;6.33;;;17.80;99.90;;;;;;5117142;28;20176;-78
2021/06/04 03:18:42;;;;;;;7.80;6.33;;;17.90;99.90;;;;;;5099735;28;20179;-79
2021/06/04 03:21:17;;;;;;;7.57;5.90;;;17.90;99.90;;;;;;5116513;28;20184;-79
2021/06/04 03:23:42;;;;;;;7.47;6.10;;;17.80;99.90;;;;;;5116995;28;20172;-79
2021/06/04 03:26:11;;;;;;;8.40;6.37;;;17.80;99.90;;;;;;5085924;28;20577;-78
2021/06/04 03:28:37;;;;;;;9.10;6.23;;;17.70;99.90;;;;;;5078706;28;20196;-78
2021/06/04 03:31:04;;;;;;;9.27;6.37;;;17.70;99.90;;;;;;5079015;28;20204;-79
2021/06/04 03:33:33;;;;;;;8.50;6.03;;;17.70;99.90;;;;;;5103249;28;20173;-79
2021/06/04 03:35:59;;;;;;;10.03;7.03;;;17.70;99.90;;;;;;5105711;28;20650;-79
2021/06/04 03:38:24;;;;;;;7.30;6.17;;;17.70;99.90;;;;;;5108119;28;20586;-79
2021/06/04 03:40:50;;;;;;;10.57;6.40;;;17.70;99.90;;;;;;5091782;28;20196;-79
2021/06/04 03:43:17;;;;;;;8.17;6.23;;;17.70;99.90;;;;;;5090613;28;20169;-78
2021/06/04 03:45:43;;;;;;;8.47;6.47;;;17.70;99.90;;;;;;5099638;28;20216;-79
2021/06/04 03:48:10;;;;;;;8.97;6.23;;;17.70;99.90;;;;;;5096143;28;20165;-79
2021/06/04 03:50:36;;;;;;;8.80;6.93;;;17.80;99.90;;;;;;5078036;28;20189;-79
2021/06/04 03:53:06;;;;;;;8.43;6.50;;;17.80;99.90;;;;;;5079356;28;20675;-79
2021/06/04 03:55:31;;;;;;;8.37;6.30;;;17.90;99.90;;;;;;5080384;28;20200;-78
2021/06/04 03:57:57;;;;;;;8.53;6.90;;;17.90;99.90;;;;;;5086143;28;20177;-77
2021/06/04 04:00:27;;;;;;;8.23;6.73;;;18.00;99.90;;;;;;5100653;28;20176;-78
2021/06/04 04:02:54;;;;;;;8.67;6.70;;;18.00;99.90;;;;;;5102398;28;20168;-77
2021/06/04 04:05:20;;;;;;;8.83;6.87;;;18.00;99.90;;;;;;5103281;28;20188;-77
2021/06/04 04:07:45;;;;;;;8.07;6.37;;;17.90;99.90;;;;;;5100317;28;20179;-77
2021/06/04 04:10:11;;;;;;;10.17;6.90;;;18.00;99.90;;;;;;5100136;28;20170;-77
2021/06/04 04:12:37;;;;;;;8.17;6.67;;;18.00;99.90;;;;;;5093544;28;20263;-78
2021/06/04 04:15:07;;;;;;;9.40;6.53;;;18.00;99.90;;;;;;5092595;28;20184;-78
2021/06/04 04:17:32;;;;;;;8.53;6.70;;;17.90;99.90;;;;;;5100718;28;20272;-77
2021/06/04 04:19:58;;;;;;;9.07;7.03;;;17.90;99.90;;;;;;5088969;28;20263;-77
2021/06/04 04:22:24;;;;;;;9.43;7.50;;;18.00;99.90;;;;;;5109749;28;20214;-79
2021/06/04 04:24:49;;;;;;;9.07;7.00;;;18.00;99.90;;;;;;5110374;28;20201;-78
2021/06/04 04:27:15;;;;;;;10.50;7.50;;;18.10;99.90;;;;;;5075965;28;20188;-79
2021/06/04 04:29:40;;;;;;;10.23;7.00;;;18.10;99.90;;;;;;5075127;28;20169;-77
2021/06/04 04:32:13;;;;;;;10.23;7.57;;;18.20;99.90;;;;;;5091538;28;20672;-76
2021/06/04 04:34:39;;;;;;;9.33;6.90;;;18.20;99.90;;;;;;5074722;28;20225;-76
2021/06/04 04:37:04;;;;;;;9.60;6.93;;;18.10;99.90;;;;;;5090953;28;20564;-76
2021/06/04 04:39:34;;;;;;;9.43;6.93;;;18.10;99.90;;;;;;5090813;28;20168;-76
2021/06/04 04:42:00;;;;;;;9.57;7.20;;;18.20;99.90;;;;;;5091809;28;20189;-77
2021/06/04 04:44:29;;;;;;;9.20;7.13;;;18.20;99.90;;;;;;5074227;28;20187;-76
2021/06/04 04:46:55;;;;;;;8.60;6.70;;;18.20;99.90;;;;;;5091241;28;20180;-76
2021/06/04 04:49:21;;;;;;;8.37;6.60;;;18.20;99.90;;;;;;5107549;28;20247;-76
2021/06/04 04:51:46;;;;;;;9.67;7.27;;;18.20;99.90;;;;;;5092565;28;20226;-78
2021/06/04 04:54:13;;;;;;;9.80;6.87;;;18.20;99.90;;;;;;5077616;28;20201;-77
2021/06/04 04:56:40;;;;;;;9.60;6.67;;;18.10;99.90;;;;;;5110891;28;20169;-77
2021/06/04 04:59:06;;;;;;;10.00;7.30;;;18.10;99.90;;;;;;5076772;28;20177;-77
2021/06/04 05:01:31;;;;;;;9.50;7.37;;;18.10;99.90;;;;;;5075760;28;20261;-78
2021/06/04 05:03:57;;;;;;;9.07;6.43;;;18.20;99.90;;;;;;5080849;28;20226;-78
2021/06/04 05:06:22;;;;;;;8.77;6.83;;;18.20;99.90;;;;;;5114731;28;20306;-78
2021/06/04 05:08:48;;;;;;;10.63;6.93;;;18.30;99.90;;;;;;5081298;28;20207;-78
2021/06/04 05:11:14;;;;;;;12.80;8.03;;;18.40;99.90;;;;;;5080445;28;20193;-78
2021/06/04 05:13:39;;;;;;;18.10;9.47;;;18.70;99.90;;;;;;5081248;28;20169;-78
2021/06/04 05:16:05;;;;;;;11.13;7.60;;;18.90;99.90;;;;;;5107046;28;20527;-78
2021/06/04 05:18:35;;;;;;;16.70;7.67;;;18.80;99.90;;;;;;5107842;28;20177;-77
2021/06/04 05:21:01;;;;;;;13.30;8.53;;;18.90;99.90;;;;;;5097825;28;20231;-76
2021/06/04 05:23:27;;;;;;;13.20;8.53;;;18.90;99.90;;;;;;5114597;28;20180;-76
2021/06/04 05:25:54;;;;;;;13.47;8.73;;;18.90;99.90;;;;;;5097407;28;20243;-76
2021/06/04 05:28:21;;;;;;;13.20;7.87;;;19.00;99.90;;;;;;5113713;28;20639;-76
2021/06/04 05:30:47;;;;;;;12.43;7.90;;;19.00;99.90;;;;;;5115039;28;20195;-76
2021/06/04 05:33:15;;;;;;;11.93;8.07;;;19.00;99.90;;;;;;5114458;28;20225;-76
2021/06/04 05:35:41;;;;;;;14.63;8.27;;;19.10;99.90;;;;;;5114439;28;20176;-76
2021/06/04 05:38:06;;;;;;;14.17;8.63;;;19.20;99.90;;;;;;5114244;28;20180;-76
2021/06/04 05:40:34;;;;;;;13.70;8.70;;;19.30;99.90;;;;;;5113867;28;20200;-76
2021/06/04 05:43:00;;;;;;;12.67;8.60;;;19.40;99.90;;;;;;5114290;28;20542;-76
2021/06/04 05:45:28;;;;;;;13.47;8.33;;;19.40;99.90;;;;;;5097053;28;20682;-76
2021/06/04 05:47:53;;;;;;;13.93;8.33;;;19.50;99.90;;;;;;5097057;28;20204;-76
2021/06/04 05:50:22;;;;;;;13.40;8.67;;;19.60;99.90;;;;;;5096784;28;20621;-76
2021/06/04 05:52:48;;;;;;;11.47;8.53;;;19.50;99.90;;;;;;5114200;28;20611;-76
2021/06/04 05:55:15;;;;;;;14.53;9.27;;;19.50;99.90;;;;;;5114145;28;20262;-76
2021/06/04 05:57:41;;;;;;;14.10;9.17;;;19.50;99.90;;;;;;5113664;28;20173;-76
2021/06/04 06:00:14;;;;;;;14.30;8.90;;;19.50;99.90;;;;;;5096958;28;20714;-76
2021/06/04 06:02:40;;;;;;;15.03;9.83;;;19.60;99.90;;;;;;5096713;28;20569;-76
2021/06/04 06:05:06;;;;;;;18.53;10.73;;;19.70;99.90;;;;;;5113830;28;20679;-76
2021/06/04 06:07:32;;;;;;;18.57;11.17;;;19.70;99.90;;;;;;5113654;28;20316;-76
2021/06/04 06:09:57;;;;;;;17.73;11.10;;;19.80;99.90;;;;;;5092777;28;20268;-76
2021/06/04 06:12:23;;;;;;;17.53;11.73;;;19.80;99.90;;;;;;5105877;28;20667;-76
2021/06/04 06:14:49;;;;;;;16.07;10.47;;;19.90;99.90;;;;;;5092613;28;20670;-76
2021/06/04 06:17:14;;;;;;;17.37;10.63;;;19.90;99.90;;;;;;5094505;28;20185;-76
2021/06/04 06:19:40;;;;;;;18.17;11.60;;;19.80;99.90;;;;;;5109883;28;20191;-77
2021/06/04 06:22:05;;;;;;;18.83;11.13;;;19.90;99.90;;;;;;5113434;28;20200;-76
2021/06/04 06:24:31;;;;;;;18.67;10.93;;;19.80;99.90;;;;;;5113291;28;20220;-76
2021/06/04 06:26:57;;;;;;;20.13;11.53;;;19.80;99.90;;;;;;5113430;28;20168;-76
2021/06/04 06:29:23;;;;;;;16.67;10.93;;;19.90;99.90;;;;;;5113060;28;20643;-76
2021/06/04 06:31:49;;;;;;;18.10;11.50;;;20.00;99.90;;;;;;5096304;28;20184;-76
2021/06/04 06:34:14;;;;;;;16.43;10.63;;;20.20;99.90;;;;;;5096091;28;20249;-76
2021/06/04 06:36:41;;;;;;;16.17;10.17;;;20.30;99.90;;;;;;5095476;28;20192;-76
2021/06/04 06:39:19;;;;;;;16.07;10.47;;;20.40;99.90;;;;;;5092457;28;20181;-76
2021/06/04 06:41:46;;;;;;;14.97;10.03;;;20.40;99.90;;;;;;5082109;28;20195;-76
2021/06/04 06:44:11;;;;;;;17.30;10.47;;;20.50;99.90;;;;;;5096022;28;20219;-76
2021/06/04 06:46:37;;;;;;;14.80;10.77;;;20.60;99.90;;;;;;5095582;28;20232;-78
2021/06/04 06:49:03;;;;;;;17.07;11.07;;;20.60;99.90;;;;;;5113652;28;20568;-78
2021/06/04 06:51:29;;;;;;;15.20;10.60;;;20.60;99.90;;;;;;5099092;28;20713;-78
2021/06/04 06:53:56;;;;;;;15.93;10.97;;;20.60;99.90;;;;;;5117814;28;20198;-80
2021/06/04 06:56:21;;;;;;;15.50;10.73;;;20.70;99.90;;;;;;5080924;28;20184;-78
2021/06/04 06:58:47;;;;;;;16.13;10.50;;;20.80;99.90;;;;;;5113933;28;20670;-77
2021/06/04 07:01:13;;;;;;;15.07;10.67;;;20.80;99.90;;;;;;5113835;28;20607;-77
2021/06/04 07:03:40;;;;;;;14.93;9.93;;;20.80;99.90;;;;;;5096481;28;20260;-77
2021/06/04 07:06:17;;;;;;;15.13;10.47;;;20.90;99.90;;;;;;5097126;28;20248;-77
2021/06/04 07:08:43;;;;;;;16.17;11.33;;;20.90;99.90;;;;;;5097915;28;20203;-77
2021/06/04 07:11:09;;;;;;;15.83;10.83;;;21.10;99.90;;;;;;5079931;28;20597;-79
2021/06/04 07:13:34;;;;;;;14.57;10.60;;;21.20;99.90;;;;;;5098545;28;20180;-78
2021/06/04 07:16:02;;;;;;;16.93;10.37;;;21.50;99.90;;;;;;5100419;28;20180;-80
2021/06/04 07:18:28;;;;;;;16.30;11.00;;;21.80;99.90;;;;;;5098716;28;20255;-76
2021/06/04 07:20:54;;;;;;;14.20;10.60;;;22.20;99.90;;;;;;5095645;28;20645;-77
2021/06/04 07:23:19;;;;;;;15.93;10.13;;;22.60;99.90;;;;;;5110285;28;20177;-77
2021/06/04 07:25:45;;;;;;;14.30;10.23;;;22.90;99.90;;;;;;5080101;28;20667;-76
2021/06/04 07:28:11;;;;;;;15.47;10.37;;;23.20;99.90;;;;;;5091797;28;20709;-76
2021/06/04 07:30:40;;;;;;;12.80;9.47;;;23.50;99.90;;;;;;5107088;28;20195;-78
2021/06/04 07:33:08;;;;;;;14.43;10.23;;;24.10;99.90;;;;;;5116729;28;20172;-78
2021/06/04 07:35:34;;;;;;;14.97;10.80;;;24.70;99.90;;;;;;5097778;28;20559;-77
2021/06/04 07:37:59;;;;;;;13.70;9.83;;;24.90;99.90;;;;;;5115399;28;20199;-78
2021/06/04 07:40:26;;;;;;;13.65;9.57;;;25.10;99.90;;;;;;5097921;28;20203;-78
2021/06/04 07:42:52;;;;;;;13.95;9.57;;;25.10;99.90;;;;;;5078004;28;20196;-78
2021/06/04 07:45:20;;;;;;;13.02;9.68;;;24.80;99.90;;;;;;5112810;28;20208;-77
2021/06/04 07:47:46;;;;;;;14.85;9.85;;;24.40;99.90;;;;;;5103170;28;20551;-77
2021/06/04 07:50:12;;;;;;;14.60;10.57;;;23.90;99.90;;;;;;5108442;28;20544;-78
2021/06/04 07:52:37;;;;;;;12.23;9.10;;;23.80;99.90;;;;;;5097328;28;20181;-80
2021/06/04 07:55:04;;;;;;;13.02;10.13;;;23.70;99.90;;;;;;5079804;28;20176;-77
2021/06/04 07:57:30;;;;;;;14.30;10.00;;;23.70;99.90;;;;;;5113163;28;20686;-77
2021/06/04 07:59:56;;;;;;;15.00;10.35;;;23.80;99.90;;;;;;5114422;28;20180;-77
2021/06/04 08:02:21;;;;;;;14.97;10.03;;;23.90;99.90;;;;;;5095407;28;20199;-78
2021/06/04 08:04:47;;;;;;;15.67;10.40;;;23.80;99.90;;;;;;5112872;28;20229;-78
2021/06/04 08:07:13;;;;;;;14.38;10.32;;;23.50;99.90;;;;;;5096493;28;20255;-78
2021/06/04 08:09:42;;;;;;;13.83;9.90;;;23.50;99.90;;;;;;5096634;28;20223;-77
2021/06/04 08:12:08;;;;;;;13.55;9.40;;;23.30;99.90;;;;;;5114316;28;20196;-78
2021/06/04 08:14:34;;;;;;;13.77;10.35;;;23.10;99.90;;;;;;5096561;28;20175;-77
2021/06/04 08:17:00;;;;;;;12.40;8.97;;;23.20;99.90;;;;;;5096110;28;20180;-78
2021/06/04 08:19:27;;;;;;;13.43;9.33;;;23.20;99.90;;;;;;5112232;28;20635;-78
2021/06/04 08:21:54;;;;;;;12.07;8.90;;;23.50;99.90;;;;;;5095141;28;20333;-77
2021/06/04 08:24:22;;;;;;;11.98;8.77;;;23.70;99.90;;;;;;5091113;28;20193;-77
2021/06/04 08:26:48;;;;;;;11.02;7.75;;;23.90;99.90;;;;;;5110731;28;20732;-75
2021/06/04 08:29:14;;;;;;;13.95;10.23;;;23.90;99.90;;;;;;5112199;28;20176;-79
2021/06/04 08:31:40;;;;;;;12.43;8.52;;;23.80;99.90;;;;;;5114216;28;20231;-78
2021/06/04 08:34:05;;;;;;;11.13;8.23;;;23.80;99.90;;;;;;5097198;28;20184;-79
2021/06/04 08:36:33;;;;;;;12.57;9.50;;;23.70;99.90;;;;;;5097666;28;20547;-80
2021/06/04 08:39:01;;;;;;;13.10;9.15;;;23.70;99.90;;;;;;5116451;28;20175;-82
2021/06/04 08:41:37;;;;;;;12.15;9.00;;;23.90;99.90;;;;;;5082077;28;20192;-79
2021/06/04 08:44:18;;;;;;;13.07;8.98;;;23.90;99.90;;;;;;5089014;28;20215;-79
2021/06/04 08:46:51;;;;;;;11.45;8.15;;;23.90;99.90;;;;;;5106772;28;20192;-78
2021/06/04 08:49:32;;;;;;;13.50;9.35;;;23.90;99.90;;;;;;5085316;28;20181;-79
2021/06/04 08:52:12;;;;;;;11.32;8.55;;;23.90;99.90;;;;;;5101378;28;20196;-78
2021/06/04 08:55:22;;;;;;;11.20;8.33;;;23.90;99.90;;;;;;5110735;28;20172;-78
2021/06/04 08:57:56;;;;;;;13.95;9.00;;;23.80;99.90;;;;;;5111481;28;20164;-77
2021/06/04 09:00:23;;;;;;;12.60;8.23;;;23.90;99.90;;;;;;5109192;28;20172;-78
2021/06/04 09:02:53;;;;;;;12.52;8.35;;;23.80;99.90;;;;;;5113769;28;20204;-79
2021/06/04 09:05:46;;;;;;;10.13;7.50;;;23.70;99.90;;;;;;5112675;28;20188;-79
2021/06/04 09:08:16;;;;;;;12.13;7.82;;;23.60;99.90;;;;;;5092790;28;20195;-78
2021/06/04 09:10:44;;;;;;;11.25;7.63;;;23.60;99.90;;;;;;5114161;28;20259;-82
2021/06/04 09:13:18;;;;;;;13.15;9.20;;;23.70;99.90;;;;;;5116570;28;20168;-80
2021/06/04 09:15:44;;;;;;;11.63;8.27;;;23.80;99.90;;;;;;5112526;28;20255;-81
2021/06/04 09:18:18;;;;;;;12.52;8.35;;;23.80;99.90;;;;;;5095538;28;20187;-80
2021/06/04 09:20:56;;;;;;;11.35;8.55;;;23.90;99.90;;;;;;5095135;28;20199;-80
2021/06/04 09:23:28;;;;;;;12.83;8.27;;;24.00;99.90;;;;;;5094556;28;20274;-80
2021/06/04 09:25:54;;;;;;;13.77;8.77;;;24.10;99.90;;;;;;5094293;28;20211;-81
2021/06/04 09:28:21;;;;;;;12.33;8.23;;;24.10;99.90;;;;;;5093403;28;20259;-80
2021/06/04 09:30:51;;;;;;;14.20;9.17;;;24.20;99.90;;;;;;5095941;28;20192;-80
2021/06/04 09:33:17;;;;;;;13.43;9.07;;;24.20;99.90;;;;;;5096040;28;20203;-80
2021/06/04 09:36:09;;;;;;;14.07;9.03;;;24.10;99.90;;;;;;5112719;28;20180;-80
2021/06/04 09:38:44;;;;;;;12.93;9.63;;;23.90;99.90;;;;;;5098544;28;20177;-80
2021/06/04 09:41:27;;;;;;;14.07;9.60;;;23.90;99.90;;;;;;5096069;28;20198;-80
2021/06/04 09:44:14;;;;;;;13.97;9.43;;;23.80;99.90;;;;;;5095948;28;20176;-80
2021/06/04 09:46:52;;;;;;;16.07;9.27;;;23.90;99.90;;;;;;5113041;28;20332;-80
2021/06/04 09:49:32;;;;;;;14.30;9.43;;;24.00;99.90;;;;;;5098323;28;20259;-80
2021/06/04 09:52:19;;;;;;;14.53;9.57;;;24.10;99.90;;;;;;5099781;28;20249;-80
2021/06/04 09:54:45;;;;;;;13.80;8.50;;;24.20;99.90;;;;;;5100033;28;20270;-79
2021/06/04 09:57:14;;;;;;;16.27;9.90;;;24.30;99.90;;;;;;5098854;28;20677;-79
2021/06/04 09:59:39;;;;;;;14.23;9.30;;;24.50;99.90;;;;;;5098087;28;20172;-79
2021/06/04 10:02:31;;;;;;;14.97;9.67;;;24.40;99.90;;;;;;5097743;28;20196;-77
2021/06/04 10:05:19;;;;;;;14.43;8.33;;;24.30;99.90;;;;;;5097504;28;20176;-77
2021/06/04 10:07:45;;;;;;;13.97;9.20;;;24.30;99.90;;;;;;5097744;28;20262;-79
2021/06/04 10:10:26;;;;;;;13.90;9.57;;;24.40;99.90;;;;;;5114474;28;20518;-79
2021/06/04 10:12:57;;;;;;;13.03;8.80;;;24.50;99.90;;;;;;5097445;28;20177;-79
2021/06/04 10:15:40;;;;;;;14.63;9.00;;;24.40;99.90;;;;;;5098795;28;20180;-78
2021/06/04 10:18:24;;;;;;;15.07;9.30;;;24.50;99.90;;;;;;5115600;28;20608;-79
2021/06/04 10:20:50;;;;;;;13.38;8.63;;;24.60;99.90;;;;;;5116103;27;20663;-79
2021/06/04 10:23:22;;;;;;;12.40;8.50;;;24.60;99.90;;;;;;5097571;28;20232;-79
2021/06/04 10:25:56;;;;;;;13.17;8.57;;;24.60;99.90;;;;;;5097011;28;20214;-79
2021/06/04 10:28:31;;;;;;;12.43;8.17;;;24.80;99.90;;;;;;5097595;28;20179;-79
2021/06/04 10:31:10;;;;;;;14.73;8.73;;;25.30;99.90;;;;;;5114288;28;20667;-77
2021/06/04 10:33:43;;;;;;;10.75;7.45;;;25.50;99.90;;;;;;5097492;28;20177;-79
2021/06/04 10:36:10;;;;;;;10.85;7.75;;;25.50;99.90;;;;;;5114615;28;20176;-78
2021/06/04 10:38:38;;;;;;;10.68;6.72;;;25.50;99.90;;;;;;5097363;28;20194;-78
2021/06/04 10:41:10;;;;;;;11.10;7.30;;;25.50;99.90;;;;;;5096850;28;20225;-78
2021/06/04 10:44:02;;;;;;;11.25;7.60;;;25.70;99.90;;;;;;5097642;28;20612;-78
2021/06/04 10:47:06;;;;;;;12.60;7.88;;;25.60;99.90;;;;;;5114370;28;20698;-78
2021/06/04 10:49:56;;;;;;;10.52;8.00;;;25.30;99.90;;;;;;5073068;28;20208;-78
2021/06/04 10:52:43;;;;;;;8.50;6.50;;;25.30;99.90;;;;;;5114377;28;20397;-78
2021/06/04 10:55:22;;;;;;;10.00;6.50;;;25.30;99.90;;;;;;5115253;28;20172;-79
2021/06/04 10:58:06;;;;;;;19.25;8.65;;;25.00;99.90;;;;;;5097037;28;20219;-77
2021/06/04 11:00:52;;;;;;;10.02;7.15;;;24.80;99.90;;;;;;5113403;28;20192;-78
2021/06/04 11:03:20;;;;;;;9.88;7.22;;;24.80;99.90;;;;;;5115169;28;20180;-78
2021/06/04 11:05:56;;;;;;;9.25;6.43;;;24.70;99.90;;;;;;5098169;28;20199;-81
2021/06/04 11:08:42;;;;;;;10.63;6.93;;;24.70;99.90;;;;;;5118389;28;20509;-82
2021/06/04 11:11:40;;;;;;;9.85;6.70;;;24.90;99.90;;;;;;5100515;28;20192;-82
2021/06/04 11:14:24;;;;;;;8.48;5.85;;;25.10;99.90;;;;;;5101610;28;20314;-82
2021/06/04 11:17:11;;;;;;;9.68;6.03;;;25.40;99.90;;;;;;5116890;28;20172;-81
2021/06/04 11:20:01;;;;;;;12.02;7.20;;;25.40;99.90;;;;;;5100937;28;20180;-82
2021/06/04 11:22:46;;;;;;;10.85;7.45;;;25.30;99.90;;;;;;5117965;28;20213;-82
2021/06/04 11:25:21;;;;;;;9.23;7.07;;;25.20;99.90;;;;;;5117980;28;20211;-83
2021/06/04 11:27:47;;;;;;;9.07;7.30;;;25.30;99.90;;;;;;5118456;28;20172;-81
2021/06/04 11:30:20;;;;;;;8.05;5.95;;;25.40;99.90;;;;;;5116001;28;20172;-82
2021/06/04 11:32:58;;;;;;;8.88;6.65;;;25.50;99.90;;;;;;5098977;28;20175;-81
2021/06/04 11:35:26;;;;;;;8.75;6.20;;;25.90;99.90;;;;;;5101145;28;20277;-82
2021/06/04 11:38:12;;;;;;;11.07;6.85;;;26.10;99.90;;;;;;5098963;28;20182;-81
2021/06/04 11:40:51;;;;;;;9.45;6.65;;;26.10;99.90;;;;;;5116454;28;20203;-81
2021/06/04 11:43:28;;;;;;;8.65;5.97;;;26.00;99.90;;;;;;5099910;28;20251;-82
2021/06/04 11:46:18;;;;;;;8.57;6.60;;;25.90;99.90;;;;;;5116442;28;20287;-80
2021/06/04 11:48:58;;;;;;;9.65;5.72;;;26.00;99.90;;;;;;5117656;28;20164;-81
2021/06/04 11:51:28;;;;;;;9.02;6.80;;;26.10;99.90;;;;;;5115796;28;20199;-81
2021/06/04 11:54:15;;;;;;;12.63;6.55;;;26.20;99.90;;;;;;5116738;28;20168;-82
2021/06/04 11:56:43;;;;;;;8.57;5.95;;;26.20;99.90;;;;;;5088221;28;20729;-82
2021/06/04 11:59:34;;;;;;;9.88;6.22;;;26.20;99.90;;;;;;5117987;28;20187;-81
2021/06/04 12:02:03;;;;;;;9.80;7.10;;;26.20;99.90;;;;;;5105086;28;20204;-82
2021/06/04 12:04:29;;;;;;;9.60;6.57;;;26.00;99.90;;;;;;5083780;28;20176;-83
2021/06/04 12:06:56;;;;;;;9.65;7.15;;;25.80;99.90;;;;;;5084539;28;20200;-81
2021/06/04 12:09:31;;;;;;;9.98;7.43;;;25.60;99.90;;;;;;5084279;28;20177;-81
2021/06/04 12:12:16;;;;;;;9.95;7.55;;;25.30;99.90;;;;;;5117785;28;20214;-82
2021/06/04 12:14:42;;;;;;;9.65;6.32;;;25.10;99.90;;;;;;5119071;28;20175;-82
2021/06/04 12:17:38;;;;;;;9.15;5.43;;;25.10;99.90;;;;;;5083554;28;20602;-82
2021/06/04 12:20:21;;;;;;;7.30;5.28;;;25.00;99.90;;;;;;5115496;28;20187;-82
2021/06/04 12:22:57;;;;;;;7.75;6.38;;;25.00;99.90;;;;;;5099441;28;20175;-80
2021/06/04 12:25:43;;;;;;;8.15;6.32;;;25.10;99.90;;;;;;5100897;28;20276;-82
2021/06/04 12:28:17;;;;;;;10.10;5.57;;;25.30;99.90;;;;;;5099016;28;20176;-80
2021/06/04 12:31:00;;;;;;;8.73;5.80;;;25.40;99.90;;;;;;5116041;28;20736;-82
2021/06/04 12:33:44;;;;;;;10.98;6.25;;;25.50;99.90;;;;;;5099652;28;20183;-82
2021/06/04 12:36:29;;;;;;;9.15;5.85;;;25.80;99.90;;;;;;5082974;28;20651;-81
2021/06/04 12:38:54;;;;;;;7.55;4.80;;;26.00;99.90;;;;;;5116519;28;20213;-82
2021/06/04 12:41:23;;;;;;;7.47;5.63;;;26.00;99.90;;;;;;5100215;28;20196;-82
2021/06/04 12:43:52;;;;;;;8.27;5.90;;;26.00;99.90;;;;;;5083733;28;20181;-80
2021/06/04 12:46:22;;;;;;;8.05;6.30;;;25.90;99.90;;;;;;5101234;28;20200;-82
2021/06/04 12:49:05;;;;;;;8.73;6.20;;;25.70;99.90;;;;;;5082513;28;20180;-81
2021/06/04 12:51:31;;;;;;;9.57;5.65;;;25.60;99.90;;;;;;5100691;28;20196;-81
2021/06/04 12:54:05;;;;;;;7.55;5.88;;;25.60;99.90;;;;;;5082429;28;20321;-81
2021/06/04 12:56:44;;;;;;;7.28;5.53;;;25.70;99.90;;;;;;5082137;28;20191;-82
2021/06/04 12:59:14;;;;;;;7.40;5.70;;;25.80;99.90;;;;;;5082961;28;20176;-81
2021/06/04 13:02:03;;;;;;;9.43;6.10;;;26.00;99.90;;;;;;5115421;28;20195;-81